sensor_id;sensor_type;location;lat;lon;timestamp;pressure;altitude;pressure_sealevel;temperature;humidity
46714;BME280;32445;51.376;10.874;2023-04-21T00:00:46;99459.31;;;8.36;53.12
46714;BME280;32445;51.376;10.874;2023-04-21T00:03:46;99455.03;;;8.34;53.21
46714;BME280;32445;51.376;10.874;2023-04-21T00:06:47;99461.94;;;8.33;53.60
46714;BME280;32445;51.376;10.874;2023-04-21T00:09:47;99449.03;;;8.33;53.20
46714;BME280;32445;51.376;10.874;2023-04-21T00:12:47;99442.16;;;8.30;53.90
46714;BME280;32445;51.376;10.874;2023-04-21T00:15:48;99449.91;;;8.30;53.74
46714;BME280;32445;51.376;10.874;2023-04-21T00:18:48;99442.16;;;8.30;54.07
46714;BME280;32445;51.376;10.874;2023-04-21T00:21:49;99442.19;;;8.29;54.54
46714;BME280;32445;51.376;10.874;2023-04-21T00:24:49;99431.84;;;8.29;54.43
46714;BME280;32445;51.376;10.874;2023-04-21T00:27:50;99431.00;;;8.28;55.11
46714;BME280;32445;51.376;10.874;2023-04-21T00:30:50;99438.78;;;8.27;55.01
46714;BME280;32445;51.376;10.874;2023-04-21T00:33:53;99436.25;;;8.25;55.57
46714;BME280;32445;51.376;10.874;2023-04-21T00:36:54;99436.25;;;8.25;55.51
46714;BME280;32445;51.376;10.874;2023-04-21T00:39:55;99436.25;;;8.24;56.09
46714;BME280;32445;51.376;10.874;2023-04-21T00:42:55;99433.69;;;8.24;56.87
46714;BME280;32445;51.376;10.874;2023-04-21T00:45:55;99429.34;;;8.24;57.09
46714;BME280;32445;51.376;10.874;2023-04-21T00:48:57;99424.16;;;8.26;57.17
46714;BME280;32445;51.376;10.874;2023-04-21T00:51:58;99424.97;;;8.28;57.38
46714;BME280;32445;51.376;10.874;2023-04-21T00:54:59;99430.09;;;8.29;57.91
46714;BME280;32445;51.376;10.874;2023-04-21T00:58:01;99427.50;;;8.32;57.79
46714;BME280;32445;51.376;10.874;2023-04-21T01:01:01;99413.63;;;8.35;57.99
46714;BME280;32445;51.376;10.874;2023-04-21T01:04:03;99417.06;;;8.37;57.52
46714;BME280;32445;51.376;10.874;2023-04-21T01:07:04;99418.75;;;8.38;57.66
46714;BME280;32445;51.376;10.874;2023-04-21T01:10:06;99416.16;;;8.40;57.53
46714;BME280;32445;51.376;10.874;2023-04-21T01:13:06;99426.44;;;8.43;57.35
46714;BME280;32445;51.376;10.874;2023-04-21T01:16:07;99416.09;;;8.44;56.80
46714;BME280;32445;51.376;10.874;2023-04-21T01:19:07;99416.03;;;8.47;56.92
46714;BME280;32445;51.376;10.874;2023-04-21T01:22:08;99419.47;;;8.46;57.69
46714;BME280;32445;51.376;10.874;2023-04-21T01:25:12;99423.78;;;8.47;57.87
46714;BME280;32445;51.376;10.874;2023-04-21T01:28:12;99414.31;;;8.46;57.67
46714;BME280;32445;51.376;10.874;2023-04-21T01:31:16;99422.00;;;8.49;57.72
46714;BME280;32445;51.376;10.874;2023-04-21T01:34:17;99424.59;;;8.51;57.53
46714;BME280;32445;51.376;10.874;2023-04-21T01:37:23;99416.84;;;8.51;58.11
46714;BME280;32445;51.376;10.874;2023-04-21T01:40:23;99418.50;;;8.52;57.44
46714;BME280;32445;51.376;10.874;2023-04-21T01:43:25;99418.50;;;8.52;57.87
46714;BME280;32445;51.376;10.874;2023-04-21T01:46:25;99415.94;;;8.52;57.63
46714;BME280;32445;51.376;10.874;2023-04-21T01:49:26;99419.34;;;8.54;57.46
46714;BME280;32445;51.376;10.874;2023-04-21T01:52:26;99415.88;;;8.55;57.93
46714;BME280;32445;51.376;10.874;2023-04-21T01:55:26;99419.31;;;8.56;57.88
46714;BME280;32445;51.376;10.874;2023-04-21T01:58:28;99414.16;;;8.56;57.74
46714;BME280;32445;51.376;10.874;2023-04-21T02:01:28;99411.56;;;8.56;57.30
46714;BME280;32445;51.376;10.874;2023-04-21T02:04:29;99402.06;;;8.56;57.53
46714;BME280;32445;51.376;10.874;2023-04-21T02:07:29;99408.97;;;8.56;57.92
46714;BME280;32445;51.376;10.874;2023-04-21T02:10:29;99405.50;;;8.57;57.89
46714;BME280;32445;51.376;10.874;2023-04-21T02:13:30;99404.63;;;8.56;57.93
46714;BME280;32445;51.376;10.874;2023-04-21T02:16:30;99406.34;;;8.57;57.53
46714;BME280;32445;51.376;10.874;2023-04-21T02:19:30;99411.53;;;8.57;58.25
46714;BME280;32445;51.376;10.874;2023-04-21T02:22:31;99408.09;;;8.57;58.12
46714;BME280;32445;51.376;10.874;2023-04-21T02:25:31;99412.38;;;8.58;58.04
46714;BME280;32445;51.376;10.874;2023-04-21T02:28:32;99410.66;;;8.58;57.63
46714;BME280;32445;51.376;10.874;2023-04-21T02:31:32;99415.84;;;8.58;57.88
46714;BME280;32445;51.376;10.874;2023-04-21T02:34:32;99410.66;;;8.58;57.59
46714;BME280;32445;51.376;10.874;2023-04-21T02:37:33;99408.91;;;8.59;57.88
46714;BME280;32445;51.376;10.874;2023-04-21T02:40:33;99418.38;;;8.60;57.70
46714;BME280;32445;51.376;10.874;2023-04-21T02:43:34;99412.34;;;8.59;57.19
46714;BME280;32445;51.376;10.874;2023-04-21T02:46:34;99408.03;;;8.60;57.51
46714;BME280;32445;51.376;10.874;2023-04-21T02:49:39;99401.16;;;8.59;57.52
46714;BME280;32445;51.376;10.874;2023-04-21T02:52:40;99408.91;;;8.59;57.33
46714;BME280;32445;51.376;10.874;2023-04-21T02:55:40;99402.94;;;8.57;56.99
46714;BME280;32445;51.376;10.874;2023-04-21T02:58:41;99405.50;;;8.55;57.38
46714;BME280;32445;51.376;10.874;2023-04-21T03:01:41;99413.28;;;8.55;57.11
46714;BME280;32445;51.376;10.874;2023-04-21T03:04:41;99414.16;;;8.56;56.89
46714;BME280;32445;51.376;10.874;2023-04-21T03:07:44;99411.56;;;8.56;57.13
46714;BME280;32445;51.376;10.874;2023-04-21T03:10:44;99410.69;;;8.57;57.25
46714;BME280;32445;51.376;10.874;2023-04-21T03:13:45;99402.94;;;8.55;56.77
46714;BME280;32445;51.376;10.874;2023-04-21T03:16:45;99409.81;;;8.56;56.87
46714;BME280;32445;51.376;10.874;2023-04-21T03:19:46;99412.41;;;8.56;57.01
46714;BME280;32445;51.376;10.874;2023-04-21T03:22:46;99404.63;;;8.56;56.35
46714;BME280;32445;51.376;10.874;2023-04-21T03:25:47;99403.81;;;8.56;56.92
46714;BME280;32445;51.376;10.874;2023-04-21T03:28:47;99400.38;;;8.54;56.70
46714;BME280;32445;51.376;10.874;2023-04-21T03:31:48;99403.00;;;8.52;57.24
46714;BME280;32445;51.376;10.874;2023-04-21T03:34:48;99396.09;;;8.53;57.14
46714;BME280;32445;51.376;10.874;2023-04-21T03:37:49;99399.53;;;8.53;57.30
46714;BME280;32445;51.376;10.874;2023-04-21T03:40:49;99387.47;;;8.52;56.79
46714;BME280;32445;51.376;10.874;2023-04-21T03:43:50;99396.13;;;8.51;56.55
46714;BME280;32445;51.376;10.874;2023-04-21T03:46:51;99391.81;;;8.52;56.71
46714;BME280;32445;51.376;10.874;2023-04-21T03:49:52;99389.22;;;8.52;56.79
46714;BME280;32445;51.376;10.874;2023-04-21T03:52:53;99373.72;;;8.50;56.62
46714;BME280;32445;51.376;10.874;2023-04-21T03:55:53;99378.91;;;8.50;56.68
46714;BME280;32445;51.376;10.874;2023-04-21T03:58:53;99389.28;;;8.48;56.72
46714;BME280;32445;51.376;10.874;2023-04-21T04:01:54;99391.94;;;8.45;57.14
46714;BME280;32445;51.376;10.874;2023-04-21T04:04:54;99385.88;;;8.43;57.46
46714;BME280;32445;51.376;10.874;2023-04-21T04:07:54;99383.34;;;8.42;58.20
46714;BME280;32445;51.376;10.874;2023-04-21T04:10:55;99393.72;;;8.40;58.40
46714;BME280;32445;51.376;10.874;2023-04-21T04:13:56;99388.53;;;8.40;58.79
46714;BME280;32445;51.376;10.874;2023-04-21T04:16:57;99391.97;;;8.41;58.62
46714;BME280;32445;51.376;10.874;2023-04-21T04:19:58;99394.56;;;8.41;58.22
46714;BME280;32445;51.376;10.874;2023-04-21T04:22:58;99398.03;;;8.40;58.63
46714;BME280;32445;51.376;10.874;2023-04-21T04:25:58;99394.56;;;8.41;59.41
46714;BME280;32445;51.376;10.874;2023-04-21T04:29:00;99394.56;;;8.41;59.31
46714;BME280;32445;51.376;10.874;2023-04-21T04:32:01;99394.56;;;8.41;59.65
46714;BME280;32445;51.376;10.874;2023-04-21T04:35:04;99395.38;;;8.43;59.83
46714;BME280;32445;51.376;10.874;2023-04-21T04:38:04;99397.09;;;8.44;59.52
46714;BME280;32445;51.376;10.874;2023-04-21T04:41:06;99405.72;;;8.46;59.74
46714;BME280;32445;51.376;10.874;2023-04-21T04:44:08;99397.91;;;8.47;59.47
46714;BME280;32445;51.376;10.874;2023-04-21T04:47:10;99398.69;;;8.53;59.44
46714;BME280;32445;51.376;10.874;2023-04-21T04:50:11;99402.09;;;8.55;57.79
46714;BME280;32445;51.376;10.874;2023-04-21T04:53:11;99393.47;;;8.54;58.20
46714;BME280;32445;51.376;10.874;2023-04-21T04:56:12;99404.69;;;8.55;58.83
46714;BME280;32445;51.376;10.874;2023-04-21T04:59:12;99398.66;;;8.54;59.74
46714;BME280;32445;51.376;10.874;2023-04-21T05:02:12;99400.34;;;8.55;60.17
46714;BME280;32445;51.376;10.874;2023-04-21T05:05:13;99405.50;;;8.57;60.29
46714;BME280;32445;51.376;10.874;2023-04-21T05:08:13;99403.72;;;8.59;60.54
46714;BME280;32445;51.376;10.874;2023-04-21T05:11:14;99404.56;;;8.59;60.24
46714;BME280;32445;51.376;10.874;2023-04-21T05:14:14;99405.38;;;8.63;60.71
46714;BME280;32445;51.376;10.874;2023-04-21T05:17:14;99407.06;;;8.65;60.33
46714;BME280;32445;51.376;10.874;2023-04-21T05:20:15;99411.31;;;8.68;60.70
46714;BME280;32445;51.376;10.874;2023-04-21T05:23:15;99411.28;;;8.70;60.90
46714;BME280;32445;51.376;10.874;2023-04-21T05:26:15;99412.94;;;8.72;61.05
46714;BME280;32445;51.376;10.874;2023-04-21T05:29:16;99420.66;;;8.75;60.47
46714;BME280;32445;51.376;10.874;2023-04-21T05:32:16;99410.28;;;8.77;60.88
46714;BME280;32445;51.376;10.874;2023-04-21T05:35:16;99424.00;;;8.80;61.15
46714;BME280;32445;51.376;10.874;2023-04-21T05:38:17;99417.06;;;8.82;61.32
46714;BME280;32445;51.376;10.874;2023-04-21T05:41:17;99424.75;;;8.87;61.48
46714;BME280;32445;51.376;10.874;2023-04-21T05:44:17;99418.66;;;8.90;61.51
46714;BME280;32445;51.376;10.874;2023-04-21T05:47:18;99409.91;;;8.94;61.45
46714;BME280;32445;51.376;10.874;2023-04-21T05:50:18;99418.44;;;8.99;62.00
46714;BME280;32445;51.376;10.874;2023-04-21T05:53:18;99420.97;;;9.02;61.84
46714;BME280;32445;51.376;10.874;2023-04-21T05:56:19;99420.03;;;9.06;62.51
46714;BME280;32445;51.376;10.874;2023-04-21T05:59:19;99419.03;;;9.12;62.05
46714;BME280;32445;51.376;10.874;2023-04-21T06:02:21;99418.97;;;9.15;62.40
46714;BME280;32445;51.376;10.874;2023-04-21T06:05:21;99409.38;;;9.20;62.73
46714;BME280;32445;51.376;10.874;2023-04-21T06:08:22;99408.41;;;9.26;62.65
46714;BME280;32445;51.376;10.874;2023-04-21T06:11:23;99409.16;;;9.29;63.17
46714;BME280;32445;51.376;10.874;2023-04-21T06:14:23;99415.09;;;9.34;62.78
46714;BME280;32445;51.376;10.874;2023-04-21T06:17:24;99402.88;;;9.40;63.08
46714;BME280;32445;51.376;10.874;2023-04-21T06:20:24;99403.63;;;9.45;63.17
46714;BME280;32445;51.376;10.874;2023-04-21T06:23:25;99408.72;;;9.49;63.40
46714;BME280;32445;51.376;10.874;2023-04-21T06:26:25;99404.28;;;9.55;63.81
46714;BME280;32445;51.376;10.874;2023-04-21T06:29:26;99402.41;;;9.60;63.43
46714;BME280;32445;51.376;10.874;2023-04-21T06:32:26;99403.13;;;9.66;63.38
46714;BME280;32445;51.376;10.874;2023-04-21T06:35:26;99405.56;;;9.73;63.75
46714;BME280;32445;51.376;10.874;2023-04-21T06:38:27;99407.13;;;9.80;64.18
46714;BME280;32445;51.376;10.874;2023-04-21T06:41:27;99409.53;;;9.87;63.34
46714;BME280;32445;51.376;10.874;2023-04-21T06:44:28;99400.72;;;9.95;63.66
46714;BME280;32445;51.376;10.874;2023-04-21T06:47:28;99404.84;;;10.02;63.69
46714;BME280;32445;51.376;10.874;2023-04-21T06:50:29;99408.13;;;10.10;63.68
46714;BME280;32445;51.376;10.874;2023-04-21T06:53:29;99403.59;;;10.17;63.52
46714;BME280;32445;51.376;10.874;2023-04-21T06:56:30;99398.22;;;10.25;63.57
46714;BME280;32445;51.376;10.874;2023-04-21T06:59:31;99397.16;;;10.32;64.09
46714;BME280;32445;51.376;10.874;2023-04-21T07:02:31;99395.28;;;10.38;63.43
46714;BME280;32445;51.376;10.874;2023-04-21T07:05:31;99395.91;;;10.47;63.69
46714;BME280;32445;51.376;10.874;2023-04-21T07:08:32;99403.44;;;10.58;63.25
46714;BME280;32445;51.376;10.874;2023-04-21T07:11:32;99398.84;;;10.66;63.68
46714;BME280;32445;51.376;10.874;2023-04-21T07:14:32;99397.75;;;10.75;63.10
46714;BME280;32445;51.376;10.874;2023-04-21T07:17:33;99398.38;;;10.83;63.55
46714;BME280;32445;51.376;10.874;2023-04-21T07:20:33;99397.19;;;10.93;63.05
46714;BME280;32445;51.376;10.874;2023-04-21T07:23:33;99400.44;;;11.01;62.51
46714;BME280;32445;51.376;10.874;2023-04-21T07:26:34;99390.72;;;11.08;62.86
46714;BME280;32445;51.376;10.874;2023-04-21T07:29:34;99399.94;;;11.18;62.30
46714;BME280;32445;51.376;10.874;2023-04-21T07:32:36;99397.03;;;11.29;62.31
46714;BME280;32445;51.376;10.874;2023-04-21T07:35:37;99394.16;;;11.37;62.12
46714;BME280;32445;51.376;10.874;2023-04-21T07:38:37;99391.28;;;11.46;61.87
46714;BME280;32445;51.376;10.874;2023-04-21T07:41:42;99392.69;;;11.56;62.27
46714;BME280;32445;51.376;10.874;2023-04-21T07:44:42;99396.75;;;11.65;62.02
46714;BME280;32445;51.376;10.874;2023-04-21T07:47:43;99400.81;;;11.74;61.32
46714;BME280;32445;51.376;10.874;2023-04-21T07:50:43;99397.88;;;11.83;61.05
46714;BME280;32445;51.376;10.874;2023-04-21T07:53:44;99402.81;;;11.92;61.17
46714;BME280;32445;51.376;10.874;2023-04-21T07:56:44;99396.41;;;12.03;61.07
46714;BME280;32445;51.376;10.874;2023-04-21T07:59:44;99391.75;;;12.13;60.44
46714;BME280;32445;51.376;10.874;2023-04-21T08:02:45;99394.84;;;12.24;60.40
46714;BME280;32445;51.376;10.874;2023-04-21T08:05:46;99391.91;;;12.33;60.52
46714;BME280;32445;51.376;10.874;2023-04-21T08:08:46;99394.13;;;12.44;60.19
46714;BME280;32445;51.376;10.874;2023-04-21T08:11:47;99393.69;;;12.56;59.69
46714;BME280;32445;51.376;10.874;2023-04-21T08:14:47;99391.59;;;12.66;59.18
46714;BME280;32445;51.376;10.874;2023-04-21T08:17:47;99386.84;;;12.77;59.05
46714;BME280;32445;51.376;10.874;2023-04-21T08:20:48;99390.84;;;12.86;58.65
46714;BME280;32445;51.376;10.874;2023-04-21T08:23:48;99386.09;;;12.97;58.76
46714;BME280;32445;51.376;10.874;2023-04-21T08:26:50;99378.72;;;13.09;58.19
46714;BME280;32445;51.376;10.874;2023-04-21T08:29:50;99377.44;;;13.19;58.41
46714;BME280;32445;51.376;10.874;2023-04-21T08:32:50;99376.19;;;13.29;57.88
46714;BME280;32445;51.376;10.874;2023-04-21T08:35:51;99373.19;;;13.40;57.85
46714;BME280;32445;51.376;10.874;2023-04-21T08:38:51;99364.88;;;13.53;57.39
46714;BME280;32445;51.376;10.874;2023-04-21T08:41:51;99374.94;;;13.62;57.38
46714;BME280;32445;51.376;10.874;2023-04-21T08:44:52;99374.50;;;13.73;56.88
46714;BME280;32445;51.376;10.874;2023-04-21T08:47:54;99375.69;;;13.86;56.69
46714;BME280;32445;51.376;10.874;2023-04-21T08:50:55;99368.13;;;14.00;56.19
46714;BME280;32445;51.376;10.874;2023-04-21T08:53:56;99367.41;;;14.17;56.10
46714;BME280;32445;51.376;10.874;2023-04-21T08:56:57;99366.59;;;14.36;56.01
46714;BME280;32445;51.376;10.874;2023-04-21T08:59:57;99363.94;;;14.57;55.69
46714;BME280;32445;51.376;10.874;2023-04-21T09:02:59;99351.63;;;14.79;55.32
46714;BME280;32445;51.376;10.874;2023-04-21T09:06:04;99354.97;;;15.02;55.17
46714;BME280;32445;51.376;10.874;2023-04-21T09:09:04;99350.25;;;15.28;54.42
46714;BME280;32445;51.376;10.874;2023-04-21T09:12:05;99360.59;;;15.48;53.89
46714;BME280;32445;51.376;10.874;2023-04-21T09:15:09;99358.63;;;15.71;53.45
46714;BME280;32445;51.376;10.874;2023-04-21T09:18:21;99358.31;;;15.95;52.67
46714;BME280;32445;51.376;10.874;2023-04-21T09:21:26;99357.94;;;16.20;52.15
46714;BME280;32445;51.376;10.874;2023-04-21T09:24:27;99360.28;;;16.42;52.22
46714;BME280;32445;51.376;10.874;2023-04-21T09:27:27;99344.97;;;16.68;51.82
46714;BME280;32445;51.376;10.874;2023-04-21T09:30:28;99346.28;;;16.92;51.17
46714;BME280;32445;51.376;10.874;2023-04-21T09:33:32;99349.41;;;17.15;50.46
46714;BME280;32445;51.376;10.874;2023-04-21T09:36:32;99337.00;;;17.33;49.48
46714;BME280;32445;51.376;10.874;2023-04-21T09:39:33;99336.88;;;17.51;49.48
46714;BME280;32445;51.376;10.874;2023-04-21T09:42:33;99336.78;;;17.68;48.12
46714;BME280;32445;51.376;10.874;2023-04-21T09:45:35;99337.75;;;17.81;48.01
46714;BME280;32445;51.376;10.874;2023-04-21T09:48:36;99335.06;;;17.97;47.93
46714;BME280;32445;51.376;10.874;2023-04-21T09:51:38;99332.47;;;18.12;46.72
46714;BME280;32445;51.376;10.874;2023-04-21T09:54:44;99320.56;;;18.21;46.88
46714;BME280;32445;51.376;10.874;2023-04-21T09:57:48;99322.25;;;18.36;46.41
46714;BME280;32445;51.376;10.874;2023-04-21T10:00:52;99316.16;;;18.50;46.30
46714;BME280;32445;51.376;10.874;2023-04-21T10:03:55;99318.09;;;18.61;46.11
46714;BME280;32445;51.376;10.874;2023-04-21T10:06:57;99310.19;;;18.75;46.24
46714;BME280;32445;51.376;10.874;2023-04-21T10:09:59;99308.69;;;18.85;45.85
46714;BME280;32445;51.376;10.874;2023-04-21T10:13:00;99302.25;;;19.04;46.67
46714;BME280;32445;51.376;10.874;2023-04-21T10:16:05;99305.59;;;19.21;45.12
46714;BME280;32445;51.376;10.874;2023-04-21T10:19:26;99297.75;;;19.33;45.16
46714;BME280;32445;51.376;10.874;2023-04-21T10:25:28;99293.72;;;19.68;44.61
46714;BME280;32445;51.376;10.874;2023-04-21T10:31:52;99287.75;;;20.04;43.21
46714;BME280;32445;51.376;10.874;2023-04-21T10:34:55;99289.97;;;20.23;42.26
46714;BME280;32445;51.376;10.874;2023-04-21T10:37:57;99287.19;;;20.38;41.50
46714;BME280;32445;51.376;10.874;2023-04-21T10:41:33;99290.75;;;20.50;41.44
46714;BME280;32445;51.376;10.874;2023-04-21T10:44:34;99278.81;;;20.70;41.36
46714;BME280;32445;51.376;10.874;2023-04-21T10:47:39;99276.66;;;20.88;40.49
46714;BME280;32445;51.376;10.874;2023-04-21T10:50:47;99272.16;;;21.01;40.62
46714;BME280;32445;51.376;10.874;2023-04-21T10:53:47;99269.84;;;21.21;39.47
46714;BME280;32445;51.376;10.874;2023-04-21T10:56:50;99275.53;;;21.39;39.64
46714;BME280;32445;51.376;10.874;2023-04-21T10:59:52;99270.84;;;21.55;38.39
46714;BME280;32445;51.376;10.874;2023-04-21T11:02:55;99277.72;;;21.69;37.47
46714;BME280;32445;51.376;10.874;2023-04-21T11:05:56;99274.00;;;21.83;38.52
46714;BME280;32445;51.376;10.874;2023-04-21T11:08:56;99255.28;;;21.98;37.87
46714;BME280;32445;51.376;10.874;2023-04-21T11:12:01;99267.06;;;22.16;37.12
46714;BME280;32445;51.376;10.874;2023-04-21T11:15:10;99251.59;;;22.34;36.99
46714;BME280;32445;51.376;10.874;2023-04-21T11:18:11;99255.44;;;22.53;36.84
46714;BME280;32445;51.376;10.874;2023-04-21T11:21:16;99251.19;;;22.73;36.51
46714;BME280;32445;51.376;10.874;2023-04-21T11:24:18;99240.53;;;22.95;36.48
46714;BME280;32445;51.376;10.874;2023-04-21T11:27:19;99245.38;;;23.23;36.30
46714;BME280;32445;51.376;10.874;2023-04-21T11:30:30;99245.63;;;23.41;35.52
46714;BME280;32445;51.376;10.874;2023-04-21T11:33:39;99235.44;;;23.57;34.97
46714;BME280;32445;51.376;10.874;2023-04-21T11:36:41;99244.78;;;23.82;34.91
46714;BME280;32445;51.376;10.874;2023-04-21T11:39:42;99236.50;;;23.97;34.09
46714;BME280;32445;51.376;10.874;2023-04-21T11:42:43;99239.13;;;24.18;36.27
46714;BME280;32445;51.376;10.874;2023-04-21T11:45:47;99233.03;;;24.37;34.29
46714;BME280;32445;51.376;10.874;2023-04-21T11:52:04;99236.34;;;24.60;34.75
46714;BME280;32445;51.376;10.874;2023-04-21T11:55:13;99226.59;;;24.70;33.80
46714;BME280;32445;51.376;10.874;2023-04-21T11:58:19;99221.56;;;24.87;33.81
46714;BME280;32445;51.376;10.874;2023-04-21T12:01:20;99216.84;;;25.00;32.24
46714;BME280;32445;51.376;10.874;2023-04-21T12:04:23;99225.47;;;25.02;32.33
46714;BME280;32445;51.376;10.874;2023-04-21T12:07:23;99219.75;;;24.97;32.41
46714;BME280;32445;51.376;10.874;2023-04-21T12:10:24;99211.78;;;24.97;33.24
46714;BME280;32445;51.376;10.874;2023-04-21T12:13:27;99213.47;;;25.08;32.59
46714;BME280;32445;51.376;10.874;2023-04-21T12:16:28;99207.19;;;25.19;32.54
46714;BME280;32445;51.376;10.874;2023-04-21T12:19:40;99208.03;;;25.39;33.20
46714;BME280;32445;51.376;10.874;2023-04-21T12:22:40;99203.22;;;25.62;32.91
46714;BME280;32445;51.376;10.874;2023-04-21T12:25:41;99201.47;;;25.81;31.40
46714;BME280;32445;51.376;10.874;2023-04-21T12:28:41;99198.22;;;25.87;31.79
46714;BME280;32445;51.376;10.874;2023-04-21T12:31:41;99196.25;;;25.89;31.35
46714;BME280;32445;51.376;10.874;2023-04-21T12:34:42;99197.34;;;25.96;32.03
46714;BME280;32445;51.376;10.874;2023-04-21T12:37:43;99185.72;;;26.07;31.76
46714;BME280;32445;51.376;10.874;2023-04-21T12:40:44;99179.72;;;26.05;31.38
46714;BME280;32445;51.376;10.874;2023-04-21T12:43:44;99184.28;;;26.13;30.96
46714;BME280;32445;51.376;10.874;2023-04-21T12:46:45;99182.09;;;26.26;31.71
46714;BME280;32445;51.376;10.874;2023-04-21T12:49:45;99184.09;;;26.42;31.18
46714;BME280;32445;51.376;10.874;2023-04-21T12:52:45;99170.88;;;26.50;30.97
46714;BME280;32445;51.376;10.874;2023-04-21T12:55:47;99167.91;;;26.53;30.69
46714;BME280;32445;51.376;10.874;2023-04-21T12:58:48;99166.88;;;26.64;31.11
46714;BME280;32445;51.376;10.874;2023-04-21T13:01:49;99156.69;;;26.77;30.43
46714;BME280;32445;51.376;10.874;2023-04-21T13:04:49;99155.63;;;26.88;30.86
46714;BME280;32445;51.376;10.874;2023-04-21T13:07:49;99157.75;;;27.03;30.91
46714;BME280;32445;51.376;10.874;2023-04-21T13:10:50;99155.97;;;27.11;30.91
46714;BME280;32445;51.376;10.874;2023-04-21T13:13:50;99161.38;;;27.20;30.12
46714;BME280;32445;51.376;10.874;2023-04-21T13:16:51;99171.03;;;27.21;29.90
46714;BME280;32445;51.376;10.874;2023-04-21T13:19:52;99149.72;;;27.21;31.33
46714;BME280;32445;51.376;10.874;2023-04-21T13:22:52;99148.78;;;27.30;31.49
46714;BME280;32445;51.376;10.874;2023-04-21T13:25:53;99143.06;;;27.43;30.64
46714;BME280;32445;51.376;10.874;2023-04-21T13:28:53;99145.47;;;27.54;29.57
46714;BME280;32445;51.376;10.874;2023-04-21T13:31:55;99155.16;;;27.55;29.28
46714;BME280;32445;51.376;10.874;2023-04-21T13:34:55;99142.16;;;27.60;29.26
46714;BME280;32445;51.376;10.874;2023-04-21T13:37:57;99139.16;;;27.55;28.71
46714;BME280;32445;51.376;10.874;2023-04-21T13:40:57;99126.50;;;27.57;29.41
46714;BME280;32445;51.376;10.874;2023-04-21T13:43:58;99123.00;;;27.65;28.62
46714;BME280;32445;51.376;10.874;2023-04-21T13:46:58;99128.22;;;27.75;28.51
46714;BME280;32445;51.376;10.874;2023-04-21T13:49:59;99116.09;;;27.80;28.50
46714;BME280;32445;51.376;10.874;2023-04-21T13:53:00;99123.75;;;27.84;31.45
46714;BME280;32445;51.376;10.874;2023-04-21T13:56:00;99110.28;;;27.93;29.64
46714;BME280;32445;51.376;10.874;2023-04-21T13:59:01;99102.13;;;27.95;28.56
46714;BME280;32445;51.376;10.874;2023-04-21T14:02:01;99099.16;;;27.98;27.42
46714;BME280;32445;51.376;10.874;2023-04-21T14:05:01;99107.84;;;28.00;28.05
46714;BME280;32445;51.376;10.874;2023-04-21T14:08:03;99101.22;;;28.04;27.19
46714;BME280;32445;51.376;10.874;2023-04-21T14:11:03;99095.72;;;28.06;27.96
46714;BME280;32445;51.376;10.874;2023-04-21T14:14:05;99092.34;;;28.04;27.43
46714;BME280;32445;51.376;10.874;2023-04-21T14:17:06;99090.69;;;28.03;27.99
46714;BME280;32445;51.376;10.874;2023-04-21T14:20:07;99085.81;;;27.98;26.85
46714;BME280;32445;51.376;10.874;2023-04-21T14:23:08;99089.44;;;27.89;26.55
46714;BME280;32445;51.376;10.874;2023-04-21T14:26:09;99088.28;;;27.83;27.14
46714;BME280;32445;51.376;10.874;2023-04-21T14:29:09;99075.44;;;27.78;28.00
46714;BME280;32445;51.376;10.874;2023-04-21T14:32:09;99086.25;;;27.77;27.26
46714;BME280;32445;51.376;10.874;2023-04-21T14:35:11;99070.41;;;27.75;27.43
46714;BME280;32445;51.376;10.874;2023-04-21T14:38:11;99076.56;;;27.76;27.03
46714;BME280;32445;51.376;10.874;2023-04-21T14:41:12;99075.75;;;27.75;27.92
46714;BME280;32445;51.376;10.874;2023-04-21T14:44:12;99065.09;;;27.75;28.01
46714;BME280;32445;51.376;10.874;2023-04-21T14:47:13;99068.41;;;27.77;28.17
46714;BME280;32445;51.376;10.874;2023-04-21T14:50:13;99063.75;;;27.79;27.99
46714;BME280;32445;51.376;10.874;2023-04-21T14:53:13;99071.75;;;27.79;27.99
46714;BME280;32445;51.376;10.874;2023-04-21T14:56:14;99054.75;;;27.80;27.57
46714;BME280;32445;51.376;10.874;2023-04-21T14:59:14;99059.75;;;27.84;27.10
46714;BME280;32445;51.376;10.874;2023-04-21T15:02:15;99058.41;;;27.79;27.03
46714;BME280;32445;51.376;10.874;2023-04-21T15:05:17;99050.56;;;27.78;26.61
46714;BME280;32445;51.376;10.874;2023-04-21T15:08:17;99044.75;;;27.74;27.89
46714;BME280;32445;51.376;10.874;2023-04-21T15:11:18;99046.88;;;27.71;28.20
46714;BME280;32445;51.376;10.874;2023-04-21T15:14:19;99035.22;;;27.72;28.03
46714;BME280;32445;51.376;10.874;2023-04-21T15:17:19;99033.91;;;27.76;28.40
46714;BME280;32445;51.376;10.874;2023-04-21T15:20:19;99037.06;;;27.79;27.72
46714;BME280;32445;51.376;10.874;2023-04-21T15:23:20;99030.41;;;27.84;27.90
46714;BME280;32445;51.376;10.874;2023-04-21T15:26:20;99031.94;;;27.86;27.45
46714;BME280;32445;51.376;10.874;2023-04-21T15:29:21;99024.75;;;27.87;26.96
46714;BME280;32445;51.376;10.874;2023-04-21T15:32:22;99020.28;;;27.87;27.91
46714;BME280;32445;51.376;10.874;2023-04-21T15:35:22;99018.09;;;27.91;27.20
46714;BME280;32445;51.376;10.874;2023-04-21T15:38:23;99013.44;;;27.93;27.20
46714;BME280;32445;51.376;10.874;2023-04-21T15:41:23;99020.31;;;27.95;27.50
46714;BME280;32445;51.376;10.874;2023-04-21T15:44:25;99014.97;;;27.95;27.05
46714;BME280;32445;51.376;10.874;2023-04-21T15:47:25;99016.47;;;27.98;26.96
46714;BME280;32445;51.376;10.874;2023-04-21T15:50:26;99011.81;;;28.00;27.54
46714;BME280;32445;51.376;10.874;2023-04-21T15:53:27;99004.81;;;27.99;26.56
46714;BME280;32445;51.376;10.874;2023-04-21T15:56:27;99005.63;;;27.91;27.18
46714;BME280;32445;51.376;10.874;2023-04-21T15:59:27;99001.09;;;27.92;27.32
46714;BME280;32445;51.376;10.874;2023-04-21T16:02:28;99004.75;;;27.91;26.53